PAFA/FAI METAR and TAF weather

Enter ICAO airport designator
Station Type Date Time Source
PAFA METAR 2022/10/01 06:53 UTC NOAA

PAFA 010653Z 02003KT 10SM BKN070 BKN160 06/03 A2965 RMK AO2 SLP048 T00610033


Station Type Date Time Source
PAFA Decoded METAR 2022/10/01 06:53 UTC NOAA

Fairbanks, Fairbanks International Airport, AK, United States (PAFA) 64-48-14N 147-52-34W 140M
Oct 01, 2022 - 02:53 AM EDT / 2022.10.01 0653 UTC
Wind: from the NNE (020 degrees) at 3 MPH (3 KT):0
Visibility: 10 mile(s):0
Sky conditions: mostly cloudy
Temperature: 43.0 F (6.1 C)
Dew Point: 37.9 F (3.3 C)
Relative Humidity: 82%
Pressure (altimeter): 29.65 in. Hg (1004 hPa)
ob: PAFA 010653Z 02003KT 10SM BKN070 BKN160 06/03 A2965 RMK AO2 SLP048 T00610033
cycle: 7

Station Type Date Time Source
PAFA TAF 2022/10/01 06:30 UTC NOAA

TAF TAF PAFA 010520Z 0106/0212 VRB03KT P6SM VCSH BKN060 BKN110
FM011800 VRB03KT P6SM VCSH SCT025 OVC050
FM020400 VRB04KT P6SM -SHRA BKN015 OVC035

Example: see airport list